sensor_id;sensor_type;location;lat;lon;timestamp;P1;durP1;ratioP1;P2;durP2;ratioP2
7773;SDS011;3931;42.260;23.116;2023-05-10T00:00:15;1.73;;;1.63;;
7773;SDS011;3931;42.260;23.116;2023-05-10T00:02:41;1.90;;;1.80;;
7773;SDS011;3931;42.260;23.116;2023-05-10T00:05:07;2.30;;;2.10;;
7773;SDS011;3931;42.260;23.116;2023-05-10T00:07:33;4.07;;;2.10;;
7773;SDS011;3931;42.260;23.116;2023-05-10T00:09:59;2.67;;;1.93;;
7773;SDS011;3931;42.260;23.116;2023-05-10T00:12:25;2.27;;;2.07;;
7773;SDS011;3931;42.260;23.116;2023-05-10T00:14:50;2.83;;;2.37;;
7773;SDS011;3931;42.260;23.116;2023-05-10T00:17:16;2.40;;;2.20;;
7773;SDS011;3931;42.260;23.116;2023-05-10T00:19:42;2.40;;;2.20;;
7773;SDS011;3931;42.260;23.116;2023-05-10T00:22:08;2.93;;;2.30;;
7773;SDS011;3931;42.260;23.116;2023-05-10T00:24:33;2.53;;;2.33;;
7773;SDS011;3931;42.260;23.116;2023-05-10T00:27:00;2.87;;;2.57;;
7773;SDS011;3931;42.260;23.116;2023-05-10T00:29:26;4.57;;;3.03;;
7773;SDS011;3931;42.260;23.116;2023-05-10T00:31:53;2.93;;;2.30;;
7773;SDS011;3931;42.260;23.116;2023-05-10T00:34:18;3.00;;;2.77;;
7773;SDS011;3931;42.260;23.116;2023-05-10T00:36:44;2.80;;;2.60;;
7773;SDS011;3931;42.260;23.116;2023-05-10T00:39:10;3.23;;;3.00;;
7773;SDS011;3931;42.260;23.116;2023-05-10T00:41:36;3.77;;;3.00;;
7773;SDS011;3931;42.260;23.116;2023-05-10T00:44:02;3.60;;;3.30;;
7773;SDS011;3931;42.260;23.116;2023-05-10T00:46:30;3.53;;;3.23;;
7773;SDS011;3931;42.260;23.116;2023-05-10T00:48:56;3.67;;;3.30;;
7773;SDS011;3931;42.260;23.116;2023-05-10T00:51:22;4.70;;;4.13;;
7773;SDS011;3931;42.260;23.116;2023-05-10T00:53:47;4.10;;;3.70;;
7773;SDS011;3931;42.260;23.116;2023-05-10T00:56:13;4.40;;;3.73;;
7773;SDS011;3931;42.260;23.116;2023-05-10T00:58:40;5.90;;;3.20;;
7773;SDS011;3931;42.260;23.116;2023-05-10T01:01:06;4.13;;;3.40;;
7773;SDS011;3931;42.260;23.116;2023-05-10T01:03:33;3.87;;;3.53;;
7773;SDS011;3931;42.260;23.116;2023-05-10T01:05:58;3.70;;;3.40;;
7773;SDS011;3931;42.260;23.116;2023-05-10T01:08:24;3.37;;;3.07;;
7773;SDS011;3931;42.260;23.116;2023-05-10T01:10:50;3.57;;;3.27;;
7773;SDS011;3931;42.260;23.116;2023-05-10T01:13:18;3.07;;;2.87;;
7773;SDS011;3931;42.260;23.116;2023-05-10T01:15:46;3.30;;;3.00;;
7773;SDS011;3931;42.260;23.116;2023-05-10T01:18:13;3.27;;;2.97;;
7773;SDS011;3931;42.260;23.116;2023-05-10T01:20:40;3.37;;;3.07;;
7773;SDS011;3931;42.260;23.116;2023-05-10T01:23:12;3.40;;;3.10;;
7773;SDS011;3931;42.260;23.116;2023-05-10T01:28:28;3.20;;;2.90;;
7773;SDS011;3931;42.260;23.116;2023-05-10T01:31:03;3.30;;;2.77;;
7773;SDS011;3931;42.260;23.116;2023-05-10T01:33:35;2.73;;;2.53;;
7773;SDS011;3931;42.260;23.116;2023-05-10T01:36:04;2.50;;;2.30;;
7773;SDS011;3931;42.260;23.116;2023-05-10T01:38:32;3.00;;;2.73;;
7773;SDS011;3931;42.260;23.116;2023-05-10T01:41:04;2.90;;;2.60;;
7773;SDS011;3931;42.260;23.116;2023-05-10T01:43:36;3.43;;;2.83;;
7773;SDS011;3931;42.260;23.116;2023-05-10T01:46:03;2.53;;;2.33;;
7773;SDS011;3931;42.260;23.116;2023-05-10T01:48:36;2.60;;;2.40;;
7773;SDS011;3931;42.260;23.116;2023-05-10T01:51:02;8.43;;;2.73;;
7773;SDS011;3931;42.260;23.116;2023-05-10T01:53:28;3.00;;;2.70;;
7773;SDS011;3931;42.260;23.116;2023-05-10T01:55:54;2.57;;;2.30;;
7773;SDS011;3931;42.260;23.116;2023-05-10T01:58:21;2.80;;;2.60;;
7773;SDS011;3931;42.260;23.116;2023-05-10T02:00:48;2.87;;;2.60;;
7773;SDS011;3931;42.260;23.116;2023-05-10T02:03:15;3.47;;;3.10;;
7773;SDS011;3931;42.260;23.116;2023-05-10T02:05:42;3.40;;;3.10;;
7773;SDS011;3931;42.260;23.116;2023-05-10T02:08:09;3.00;;;2.70;;
7773;SDS011;3931;42.260;23.116;2023-05-10T02:10:35;3.90;;;3.07;;
7773;SDS011;3931;42.260;23.116;2023-05-10T02:13:02;3.03;;;2.77;;
7773;SDS011;3931;42.260;23.116;2023-05-10T02:15:28;4.40;;;3.30;;
7773;SDS011;3931;42.260;23.116;2023-05-10T02:17:54;4.00;;;2.90;;
7773;SDS011;3931;42.260;23.116;2023-05-10T02:20:20;3.33;;;3.03;;
7773;SDS011;3931;42.260;23.116;2023-05-10T02:22:48;3.10;;;2.90;;
7773;SDS011;3931;42.260;23.116;2023-05-10T02:25:14;2.60;;;2.40;;
7773;SDS011;3931;42.260;23.116;2023-05-10T02:27:41;3.43;;;3.13;;
7773;SDS011;3931;42.260;23.116;2023-05-10T02:30:07;4.60;;;3.50;;
7773;SDS011;3931;42.260;23.116;2023-05-10T02:32:33;3.80;;;3.10;;
7773;SDS011;3931;42.260;23.116;2023-05-10T02:34:59;3.63;;;3.13;;
7773;SDS011;3931;42.260;23.116;2023-05-10T02:37:27;4.50;;;3.63;;
7773;SDS011;3931;42.260;23.116;2023-05-10T02:39:54;3.97;;;3.60;;
7773;SDS011;3931;42.260;23.116;2023-05-10T02:42:22;4.17;;;3.60;;
7773;SDS011;3931;42.260;23.116;2023-05-10T02:44:50;4.67;;;3.70;;
7773;SDS011;3931;42.260;23.116;2023-05-10T02:47:16;4.70;;;4.20;;
7773;SDS011;3931;42.260;23.116;2023-05-10T02:49:43;7.63;;;4.73;;
7773;SDS011;3931;42.260;23.116;2023-05-10T02:52:08;4.93;;;4.43;;
7773;SDS011;3931;42.260;23.116;2023-05-10T02:54:37;4.43;;;4.03;;
7773;SDS011;3931;42.260;23.116;2023-05-10T02:57:05;5.20;;;4.17;;
7773;SDS011;3931;42.260;23.116;2023-05-10T02:59:32;5.20;;;4.20;;
7773;SDS011;3931;42.260;23.116;2023-05-10T03:01:58;4.70;;;3.90;;
7773;SDS011;3931;42.260;23.116;2023-05-10T03:04:25;11.20;;;4.60;;
7773;SDS011;3931;42.260;23.116;2023-05-10T03:06:51;4.60;;;4.20;;
7773;SDS011;3931;42.260;23.116;2023-05-10T03:09:16;4.70;;;4.20;;
7773;SDS011;3931;42.260;23.116;2023-05-10T03:11:45;4.80;;;4.30;;
7773;SDS011;3931;42.260;23.116;2023-05-10T03:14:20;5.20;;;4.50;;
7773;SDS011;3931;42.260;23.116;2023-05-10T03:16:47;5.00;;;4.50;;
7773;SDS011;3931;42.260;23.116;2023-05-10T03:19:16;5.90;;;4.13;;
7773;SDS011;3931;42.260;23.116;2023-05-10T03:21:43;6.37;;;5.20;;
7773;SDS011;3931;42.260;23.116;2023-05-10T03:24:12;4.93;;;4.43;;
7773;SDS011;3931;42.260;23.116;2023-05-10T03:26:40;5.40;;;4.90;;
7773;SDS011;3931;42.260;23.116;2023-05-10T03:29:08;5.27;;;4.23;;
7773;SDS011;3931;42.260;23.116;2023-05-10T03:31:36;6.53;;;4.03;;
7773;SDS011;3931;42.260;23.116;2023-05-10T03:34:03;10.90;;;4.60;;
7773;SDS011;3931;42.260;23.116;2023-05-10T03:36:29;5.00;;;4.50;;
7773;SDS011;3931;42.260;23.116;2023-05-10T03:38:54;7.00;;;4.63;;
7773;SDS011;3931;42.260;23.116;2023-05-10T03:41:20;4.50;;;4.10;;
7773;SDS011;3931;42.260;23.116;2023-05-10T03:43:46;5.90;;;4.40;;
7773;SDS011;3931;42.260;23.116;2023-05-10T03:46:12;6.20;;;4.73;;
7773;SDS011;3931;42.260;23.116;2023-05-10T03:48:38;8.00;;;4.27;;
7773;SDS011;3931;42.260;23.116;2023-05-10T03:51:04;5.93;;;4.93;;
7773;SDS011;3931;42.260;23.116;2023-05-10T03:53:30;12.13;;;4.90;;
7773;SDS011;3931;42.260;23.116;2023-05-10T03:55:55;5.70;;;5.10;;
7773;SDS011;3931;42.260;23.116;2023-05-10T03:58:21;6.27;;;4.60;;
7773;SDS011;3931;42.260;23.116;2023-05-10T04:00:47;7.93;;;5.17;;
7773;SDS011;3931;42.260;23.116;2023-05-10T04:03:13;5.73;;;4.80;;
7773;SDS011;3931;42.260;23.116;2023-05-10T04:05:39;7.23;;;5.23;;
7773;SDS011;3931;42.260;23.116;2023-05-10T04:08:05;6.80;;;5.10;;
7773;SDS011;3931;42.260;23.116;2023-05-10T04:10:31;7.47;;;5.13;;
7773;SDS011;3931;42.260;23.116;2023-05-10T04:12:57;10.77;;;6.20;;
7773;SDS011;3931;42.260;23.116;2023-05-10T04:15:23;8.50;;;5.60;;
7773;SDS011;3931;42.260;23.116;2023-05-10T04:17:48;6.50;;;5.77;;
7773;SDS011;3931;42.260;23.116;2023-05-10T04:20:14;8.00;;;6.13;;
7773;SDS011;3931;42.260;23.116;2023-05-10T04:22:41;6.10;;;5.40;;
7773;SDS011;3931;42.260;23.116;2023-05-10T04:25:07;8.53;;;5.43;;
7773;SDS011;3931;42.260;23.116;2023-05-10T04:27:32;5.53;;;4.70;;
7773;SDS011;3931;42.260;23.116;2023-05-10T04:29:58;5.07;;;4.57;;
7773;SDS011;3931;42.260;23.116;2023-05-10T04:32:24;6.20;;;5.20;;
7773;SDS011;3931;42.260;23.116;2023-05-10T04:34:50;7.33;;;6.37;;
7773;SDS011;3931;42.260;23.116;2023-05-10T04:37:16;7.53;;;5.80;;
7773;SDS011;3931;42.260;23.116;2023-05-10T04:39:42;9.27;;;6.27;;
7773;SDS011;3931;42.260;23.116;2023-05-10T04:42:08;7.40;;;6.27;;
7773;SDS011;3931;42.260;23.116;2023-05-10T04:44:34;9.33;;;5.30;;
7773;SDS011;3931;42.260;23.116;2023-05-10T04:47:00;6.63;;;5.50;;
7773;SDS011;3931;42.260;23.116;2023-05-10T04:49:27;10.37;;;7.33;;
7773;SDS011;3931;42.260;23.116;2023-05-10T04:51:53;6.40;;;5.70;;
7773;SDS011;3931;42.260;23.116;2023-05-10T04:54:18;8.07;;;6.00;;
7773;SDS011;3931;42.260;23.116;2023-05-10T04:56:45;8.67;;;5.50;;
7773;SDS011;3931;42.260;23.116;2023-05-10T04:59:10;6.83;;;5.57;;
7773;SDS011;3931;42.260;23.116;2023-05-10T05:01:36;6.73;;;5.63;;
7773;SDS011;3931;42.260;23.116;2023-05-10T05:04:02;7.63;;;6.23;;
7773;SDS011;3931;42.260;23.116;2023-05-10T05:06:28;9.63;;;6.07;;
7773;SDS011;3931;42.260;23.116;2023-05-10T05:08:54;14.40;;;5.63;;
7773;SDS011;3931;42.260;23.116;2023-05-10T05:11:19;8.90;;;4.90;;
7773;SDS011;3931;42.260;23.116;2023-05-10T05:13:46;9.70;;;5.10;;
7773;SDS011;3931;42.260;23.116;2023-05-10T05:16:12;8.67;;;6.03;;
7773;SDS011;3931;42.260;23.116;2023-05-10T05:18:38;6.40;;;5.70;;
7773;SDS011;3931;42.260;23.116;2023-05-10T05:21:12;8.97;;;5.70;;
7773;SDS011;3931;42.260;23.116;2023-05-10T05:23:38;6.60;;;5.53;;
7773;SDS011;3931;42.260;23.116;2023-05-10T05:26:04;7.07;;;5.77;;
7773;SDS011;3931;42.260;23.116;2023-05-10T05:28:30;7.20;;;5.40;;
7773;SDS011;3931;42.260;23.116;2023-05-10T05:30:59;9.00;;;5.70;;
7773;SDS011;3931;42.260;23.116;2023-05-10T05:33:25;8.00;;;5.77;;
7773;SDS011;3931;42.260;23.116;2023-05-10T05:35:51;10.33;;;6.10;;
7773;SDS011;3931;42.260;23.116;2023-05-10T05:38:16;6.20;;;5.50;;
7773;SDS011;3931;42.260;23.116;2023-05-10T05:40:42;7.73;;;5.80;;
7773;SDS011;3931;42.260;23.116;2023-05-10T05:43:08;6.90;;;6.00;;
7773;SDS011;3931;42.260;23.116;2023-05-10T05:45:34;7.90;;;6.30;;
7773;SDS011;3931;42.260;23.116;2023-05-10T05:48:00;7.00;;;5.97;;
7773;SDS011;3931;42.260;23.116;2023-05-10T05:50:26;8.37;;;5.73;;
7773;SDS011;3931;42.260;23.116;2023-05-10T05:52:52;9.43;;;5.80;;
7773;SDS011;3931;42.260;23.116;2023-05-10T05:55:17;8.77;;;5.57;;
7773;SDS011;3931;42.260;23.116;2023-05-10T05:57:43;6.57;;;5.87;;
7773;SDS011;3931;42.260;23.116;2023-05-10T06:00:09;9.80;;;5.97;;
7773;SDS011;3931;42.260;23.116;2023-05-10T06:02:35;9.00;;;6.00;;
7773;SDS011;3931;42.260;23.116;2023-05-10T06:05:02;7.70;;;5.50;;
7773;SDS011;3931;42.260;23.116;2023-05-10T06:07:28;7.67;;;5.63;;
7773;SDS011;3931;42.260;23.116;2023-05-10T06:09:53;9.97;;;6.47;;
7773;SDS011;3931;42.260;23.116;2023-05-10T06:12:19;10.47;;;6.57;;
7773;SDS011;3931;42.260;23.116;2023-05-10T06:14:45;11.17;;;7.20;;
7773;SDS011;3931;42.260;23.116;2023-05-10T06:17:11;12.70;;;6.50;;
7773;SDS011;3931;42.260;23.116;2023-05-10T06:19:36;11.20;;;6.77;;
7773;SDS011;3931;42.260;23.116;2023-05-10T06:22:03;9.20;;;6.50;;
7773;SDS011;3931;42.260;23.116;2023-05-10T06:24:29;9.30;;;6.00;;
7773;SDS011;3931;42.260;23.116;2023-05-10T06:26:54;10.90;;;6.30;;
7773;SDS011;3931;42.260;23.116;2023-05-10T06:29:20;6.43;;;5.27;;
7773;SDS011;3931;42.260;23.116;2023-05-10T06:31:46;9.10;;;6.07;;
7773;SDS011;3931;42.260;23.116;2023-05-10T06:34:12;8.53;;;6.20;;
7773;SDS011;3931;42.260;23.116;2023-05-10T06:36:38;8.90;;;6.60;;
7773;SDS011;3931;42.260;23.116;2023-05-10T06:39:05;13.63;;;5.90;;
7773;SDS011;3931;42.260;23.116;2023-05-10T06:41:30;12.07;;;7.07;;
7773;SDS011;3931;42.260;23.116;2023-05-10T06:43:56;9.27;;;6.10;;
7773;SDS011;3931;42.260;23.116;2023-05-10T06:46:22;10.00;;;7.20;;
7773;SDS011;3931;42.260;23.116;2023-05-10T06:48:48;9.70;;;7.20;;
7773;SDS011;3931;42.260;23.116;2023-05-10T06:51:13;11.93;;;7.27;;
7773;SDS011;3931;42.260;23.116;2023-05-10T06:53:39;9.50;;;7.00;;
7773;SDS011;3931;42.260;23.116;2023-05-10T06:56:05;9.80;;;7.10;;
7773;SDS011;3931;42.260;23.116;2023-05-10T06:58:32;9.63;;;6.90;;
7773;SDS011;3931;42.260;23.116;2023-05-10T07:01:01;8.77;;;6.43;;
7773;SDS011;3931;42.260;23.116;2023-05-10T07:03:27;12.10;;;6.97;;
7773;SDS011;3931;42.260;23.116;2023-05-10T07:05:52;8.53;;;6.93;;
7773;SDS011;3931;42.260;23.116;2023-05-10T07:08:18;10.10;;;7.23;;
7773;SDS011;3931;42.260;23.116;2023-05-10T07:10:44;10.53;;;6.83;;
7773;SDS011;3931;42.260;23.116;2023-05-10T07:13:11;10.33;;;7.27;;
7773;SDS011;3931;42.260;23.116;2023-05-10T07:15:36;10.37;;;6.83;;
7773;SDS011;3931;42.260;23.116;2023-05-10T07:18:02;11.73;;;7.50;;
7773;SDS011;3931;42.260;23.116;2023-05-10T07:20:29;11.80;;;6.97;;
7773;SDS011;3931;42.260;23.116;2023-05-10T07:22:55;9.17;;;7.40;;
7773;SDS011;3931;42.260;23.116;2023-05-10T07:25:20;12.57;;;6.80;;
7773;SDS011;3931;42.260;23.116;2023-05-10T07:27:46;14.33;;;6.93;;
7773;SDS011;3931;42.260;23.116;2023-05-10T07:30:14;16.40;;;8.80;;
7773;SDS011;3931;42.260;23.116;2023-05-10T07:32:40;10.17;;;7.60;;
7773;SDS011;3931;42.260;23.116;2023-05-10T07:35:07;11.33;;;7.63;;
7773;SDS011;3931;42.260;23.116;2023-05-10T07:37:33;11.37;;;8.03;;
7773;SDS011;3931;42.260;23.116;2023-05-10T07:39:58;10.23;;;7.87;;
7773;SDS011;3931;42.260;23.116;2023-05-10T07:42:24;12.23;;;8.00;;
7773;SDS011;3931;42.260;23.116;2023-05-10T07:44:50;14.83;;;7.90;;
7773;SDS011;3931;42.260;23.116;2023-05-10T07:47:17;11.70;;;7.63;;
7773;SDS011;3931;42.260;23.116;2023-05-10T07:49:43;12.57;;;7.90;;
7773;SDS011;3931;42.260;23.116;2023-05-10T07:52:08;10.87;;;8.43;;
7773;SDS011;3931;42.260;23.116;2023-05-10T07:54:34;12.03;;;7.80;;
7773;SDS011;3931;42.260;23.116;2023-05-10T07:57:00;8.93;;;7.23;;
7773;SDS011;3931;42.260;23.116;2023-05-10T07:59:26;10.00;;;6.63;;
7773;SDS011;3931;42.260;23.116;2023-05-10T08:01:51;9.20;;;7.07;;
7773;SDS011;3931;42.260;23.116;2023-05-10T08:04:18;13.10;;;7.87;;
7773;SDS011;3931;42.260;23.116;2023-05-10T08:06:44;9.30;;;6.73;;
7773;SDS011;3931;42.260;23.116;2023-05-10T08:09:09;8.90;;;6.50;;
7773;SDS011;3931;42.260;23.116;2023-05-10T08:11:35;13.50;;;6.60;;
7773;SDS011;3931;42.260;23.116;2023-05-10T08:14:01;16.03;;;8.50;;
7773;SDS011;3931;42.260;23.116;2023-05-10T08:16:27;12.63;;;7.40;;
7773;SDS011;3931;42.260;23.116;2023-05-10T08:18:53;24.13;;;7.30;;
7773;SDS011;3931;42.260;23.116;2023-05-10T08:21:20;11.13;;;8.27;;
7773;SDS011;3931;42.260;23.116;2023-05-10T08:23:46;14.40;;;7.80;;
7773;SDS011;3931;42.260;23.116;2023-05-10T08:26:12;12.87;;;8.43;;
7773;SDS011;3931;42.260;23.116;2023-05-10T08:28:38;17.03;;;6.70;;
7773;SDS011;3931;42.260;23.116;2023-05-10T08:31:04;9.43;;;6.40;;
7773;SDS011;3931;42.260;23.116;2023-05-10T08:33:29;11.20;;;6.60;;
7773;SDS011;3931;42.260;23.116;2023-05-10T08:35:55;30.23;;;7.00;;
7773;SDS011;3931;42.260;23.116;2023-05-10T08:38:22;11.27;;;6.60;;
7773;SDS011;3931;42.260;23.116;2023-05-10T08:40:47;11.33;;;7.53;;
7773;SDS011;3931;42.260;23.116;2023-05-10T08:43:13;8.17;;;6.57;;
7773;SDS011;3931;42.260;23.116;2023-05-10T08:45:40;18.63;;;7.10;;
7773;SDS011;3931;42.260;23.116;2023-05-10T08:48:06;12.83;;;8.67;;
7773;SDS011;3931;42.260;23.116;2023-05-10T08:50:33;11.13;;;8.37;;
7773;SDS011;3931;42.260;23.116;2023-05-10T08:53:00;12.33;;;8.07;;
7773;SDS011;3931;42.260;23.116;2023-05-10T08:55:29;20.17;;;8.17;;
7773;SDS011;3931;42.260;23.116;2023-05-10T08:57:55;11.00;;;7.23;;
7773;SDS011;3931;42.260;23.116;2023-05-10T09:00:21;15.83;;;9.47;;
7773;SDS011;3931;42.260;23.116;2023-05-10T09:02:48;17.53;;;8.80;;
7773;SDS011;3931;42.260;23.116;2023-05-10T09:05:14;18.83;;;8.87;;
7773;SDS011;3931;42.260;23.116;2023-05-10T09:07:41;17.03;;;7.50;;
7773;SDS011;3931;42.260;23.116;2023-05-10T09:10:07;16.40;;;8.70;;
7773;SDS011;3931;42.260;23.116;2023-05-10T09:12:35;13.93;;;8.13;;
7773;SDS011;3931;42.260;23.116;2023-05-10T09:15:00;26.87;;;7.87;;
7773;SDS011;3931;42.260;23.116;2023-05-10T09:17:27;23.83;;;8.77;;
7773;SDS011;3931;42.260;23.116;2023-05-10T09:19:57;11.80;;;8.60;;
7773;SDS011;3931;42.260;23.116;2023-05-10T09:22:22;13.63;;;8.57;;
7773;SDS011;3931;42.260;23.116;2023-05-10T09:25:02;8.80;;;7.83;;
7773;SDS011;3931;42.260;23.116;2023-05-10T09:27:28;9.80;;;8.17;;
7773;SDS011;3931;42.260;23.116;2023-05-10T09:29:55;30.10;;;8.50;;
7773;SDS011;3931;42.260;23.116;2023-05-10T09:32:20;12.43;;;8.77;;
7773;SDS011;3931;42.260;23.116;2023-05-10T09:34:46;12.60;;;8.13;;
7773;SDS011;3931;42.260;23.116;2023-05-10T09:37:15;47.53;;;9.00;;
7773;SDS011;3931;42.260;23.116;2023-05-10T09:39:40;17.17;;;8.37;;
7773;SDS011;3931;42.260;23.116;2023-05-10T09:42:07;11.47;;;8.37;;
7773;SDS011;3931;42.260;23.116;2023-05-10T09:44:34;9.67;;;7.83;;
7773;SDS011;3931;42.260;23.116;2023-05-10T09:47:00;11.80;;;8.50;;
7773;SDS011;3931;42.260;23.116;2023-05-10T09:49:26;14.80;;;8.73;;
7773;SDS011;3931;42.260;23.116;2023-05-10T09:52:02;10.53;;;8.60;;
7773;SDS011;3931;42.260;23.116;2023-05-10T09:54:28;19.50;;;8.50;;
7773;SDS011;3931;42.260;23.116;2023-05-10T09:56:54;11.93;;;8.50;;
7773;SDS011;3931;42.260;23.116;2023-05-10T09:59:19;10.20;;;9.10;;
7773;SDS011;3931;42.260;23.116;2023-05-10T10:01:49;11.17;;;9.60;;
7773;SDS011;3931;42.260;23.116;2023-05-10T10:04:15;12.33;;;9.40;;
7773;SDS011;3931;42.260;23.116;2023-05-10T10:06:41;14.33;;;9.90;;
7773;SDS011;3931;42.260;23.116;2023-05-10T10:09:07;17.60;;;9.70;;
7773;SDS011;3931;42.260;23.116;2023-05-10T10:11:33;13.43;;;8.50;;
7773;SDS011;3931;42.260;23.116;2023-05-10T10:13:59;21.87;;;8.20;;
7773;SDS011;3931;42.260;23.116;2023-05-10T10:16:26;12.80;;;8.50;;
7773;SDS011;3931;42.260;23.116;2023-05-10T10:18:52;17.80;;;9.07;;
7773;SDS011;3931;42.260;23.116;2023-05-10T10:21:19;13.97;;;8.97;;
7773;SDS011;3931;42.260;23.116;2023-05-10T10:23:45;14.13;;;8.80;;
7773;SDS011;3931;42.260;23.116;2023-05-10T10:26:11;18.93;;;10.23;;
7773;SDS011;3931;42.260;23.116;2023-05-10T10:28:39;10.80;;;8.50;;
7773;SDS011;3931;42.260;23.116;2023-05-10T10:31:12;14.60;;;10.10;;
7773;SDS011;3931;42.260;23.116;2023-05-10T10:33:40;20.83;;;9.40;;
7773;SDS011;3931;42.260;23.116;2023-05-10T10:36:13;46.07;;;10.13;;
7773;SDS011;3931;42.260;23.116;2023-05-10T10:41:29;11.17;;;8.73;;
7773;SDS011;3931;42.260;23.116;2023-05-10T10:46:36;11.27;;;8.40;;
7773;SDS011;3931;42.260;23.116;2023-05-10T10:49:21;23.10;;;7.80;;
7773;SDS011;3931;42.260;23.116;2023-05-10T10:54:28;8.43;;;7.27;;
7773;SDS011;3931;42.260;23.116;2023-05-10T10:59:35;14.30;;;7.43;;
7773;SDS011;3931;42.260;23.116;2023-05-10T11:02:01;25.23;;;8.13;;
7773;SDS011;3931;42.260;23.116;2023-05-10T11:04:27;9.10;;;7.70;;
7773;SDS011;3931;42.260;23.116;2023-05-10T11:06:53;10.87;;;8.17;;
7773;SDS011;3931;42.260;23.116;2023-05-10T11:09:39;10.77;;;7.13;;
7773;SDS011;3931;42.260;23.116;2023-05-10T11:12:07;8.43;;;6.93;;
7773;SDS011;3931;42.260;23.116;2023-05-10T11:14:33;14.90;;;7.33;;
7773;SDS011;3931;42.260;23.116;2023-05-10T11:16:59;16.10;;;8.17;;
7773;SDS011;3931;42.260;23.116;2023-05-10T11:19:27;22.37;;;8.83;;
7773;SDS011;3931;42.260;23.116;2023-05-10T11:22:12;58.83;;;10.50;;
7773;SDS011;3931;42.260;23.116;2023-05-10T11:24:38;12.30;;;8.40;;
7773;SDS011;3931;42.260;23.116;2023-05-10T11:27:05;20.50;;;9.17;;
7773;SDS011;3931;42.260;23.116;2023-05-10T11:29:30;15.47;;;10.90;;
7773;SDS011;3931;42.260;23.116;2023-05-10T11:31:57;44.73;;;12.03;;
7773;SDS011;3931;42.260;23.116;2023-05-10T11:34:23;17.73;;;8.77;;
7773;SDS011;3931;42.260;23.116;2023-05-10T11:36:50;78.83;;;13.30;;
7773;SDS011;3931;42.260;23.116;2023-05-10T11:39:16;16.30;;;11.23;;
7773;SDS011;3931;42.260;23.116;2023-05-10T11:41:42;23.90;;;11.13;;
7773;SDS011;3931;42.260;23.116;2023-05-10T11:44:08;22.40;;;10.63;;
7773;SDS011;3931;42.260;23.116;2023-05-10T11:46:34;66.47;;;12.70;;
7773;SDS011;3931;42.260;23.116;2023-05-10T11:49:01;15.93;;;10.30;;
7773;SDS011;3931;42.260;23.116;2023-05-10T11:51:32;26.13;;;11.40;;
7773;SDS011;3931;42.260;23.116;2023-05-10T11:53:58;15.70;;;12.07;;
7773;SDS011;3931;42.260;23.116;2023-05-10T11:56:24;25.80;;;10.43;;
7773;SDS011;3931;42.260;23.116;2023-05-10T11:58:54;16.10;;;10.90;;
7773;SDS011;3931;42.260;23.116;2023-05-10T12:01:21;21.73;;;10.73;;
7773;SDS011;3931;42.260;23.116;2023-05-10T12:03:47;19.33;;;12.70;;
7773;SDS011;3931;42.260;23.116;2023-05-10T12:06:13;17.00;;;11.23;;
7773;SDS011;3931;42.260;23.116;2023-05-10T12:08:43;19.70;;;11.90;;
7773;SDS011;3931;42.260;23.116;2023-05-10T12:11:09;25.90;;;12.57;;
7773;SDS011;3931;42.260;23.116;2023-05-10T12:13:37;21.40;;;12.83;;
7773;SDS011;3931;42.260;23.116;2023-05-10T12:16:12;19.63;;;11.40;;
7773;SDS011;3931;42.260;23.116;2023-05-10T12:18:38;24.03;;;10.47;;
7773;SDS011;3931;42.260;23.116;2023-05-10T12:21:05;27.47;;;12.47;;
7773;SDS011;3931;42.260;23.116;2023-05-10T12:23:31;25.67;;;10.90;;
7773;SDS011;3931;42.260;23.116;2023-05-10T12:26:01;24.43;;;12.97;;
7773;SDS011;3931;42.260;23.116;2023-05-10T12:28:29;17.27;;;10.67;;
7773;SDS011;3931;42.260;23.116;2023-05-10T12:30:55;24.10;;;12.93;;
7773;SDS011;3931;42.260;23.116;2023-05-10T12:33:22;14.33;;;9.90;;
7773;SDS011;3931;42.260;23.116;2023-05-10T12:35:49;13.70;;;10.80;;
7773;SDS011;3931;42.260;23.116;2023-05-10T12:38:25;13.23;;;9.30;;
7773;SDS011;3931;42.260;23.116;2023-05-10T12:40:51;17.93;;;12.80;;
7773;SDS011;3931;42.260;23.116;2023-05-10T12:43:17;17.97;;;10.40;;
7773;SDS011;3931;42.260;23.116;2023-05-10T12:45:43;15.00;;;10.43;;
7773;SDS011;3931;42.260;23.116;2023-05-10T12:48:13;15.03;;;10.53;;
7773;SDS011;3931;42.260;23.116;2023-05-10T12:50:38;16.90;;;10.50;;
7773;SDS011;3931;42.260;23.116;2023-05-10T12:53:04;22.90;;;11.20;;
7773;SDS011;3931;42.260;23.116;2023-05-10T12:55:30;15.33;;;10.07;;
7773;SDS011;3931;42.260;23.116;2023-05-10T12:57:56;13.37;;;9.27;;
7773;SDS011;3931;42.260;23.116;2023-05-10T13:00:22;30.70;;;10.57;;
7773;SDS011;3931;42.260;23.116;2023-05-10T13:02:48;16.13;;;10.20;;
7773;SDS011;3931;42.260;23.116;2023-05-10T13:05:14;13.33;;;10.23;;
7773;SDS011;3931;42.260;23.116;2023-05-10T13:07:39;31.67;;;11.20;;
7773;SDS011;3931;42.260;23.116;2023-05-10T13:10:06;20.23;;;10.90;;
7773;SDS011;3931;42.260;23.116;2023-05-10T13:12:32;18.23;;;11.50;;
7773;SDS011;3931;42.260;23.116;2023-05-10T13:14:58;21.70;;;10.97;;
7773;SDS011;3931;42.260;23.116;2023-05-10T13:17:25;26.13;;;9.60;;
7773;SDS011;3931;42.260;23.116;2023-05-10T13:19:51;30.30;;;12.37;;
7773;SDS011;3931;42.260;23.116;2023-05-10T13:22:17;18.53;;;10.40;;
7773;SDS011;3931;42.260;23.116;2023-05-10T13:24:42;19.47;;;9.60;;
7773;SDS011;3931;42.260;23.116;2023-05-10T13:27:08;15.33;;;8.90;;
7773;SDS011;3931;42.260;23.116;2023-05-10T13:29:34;46.80;;;10.70;;
7773;SDS011;3931;42.260;23.116;2023-05-10T13:32:00;19.20;;;9.83;;
7773;SDS011;3931;42.260;23.116;2023-05-10T13:34:26;19.60;;;10.83;;
7773;SDS011;3931;42.260;23.116;2023-05-10T13:36:52;16.50;;;9.50;;
7773;SDS011;3931;42.260;23.116;2023-05-10T13:39:18;19.77;;;8.97;;
7773;SDS011;3931;42.260;23.116;2023-05-10T13:41:45;16.33;;;8.97;;
7773;SDS011;3931;42.260;23.116;2023-05-10T13:44:11;39.83;;;10.43;;
7773;SDS011;3931;42.260;23.116;2023-05-10T13:46:37;12.63;;;8.33;;
7773;SDS011;3931;42.260;23.116;2023-05-10T13:49:03;21.20;;;8.50;;
7773;SDS011;3931;42.260;23.116;2023-05-10T13:51:30;24.13;;;10.67;;
7773;SDS011;3931;42.260;23.116;2023-05-10T13:53:56;15.93;;;8.90;;
7773;SDS011;3931;42.260;23.116;2023-05-10T13:56:22;20.53;;;9.87;;
7773;SDS011;3931;42.260;23.116;2023-05-10T13:58:48;26.63;;;10.40;;
7773;SDS011;3931;42.260;23.116;2023-05-10T14:01:13;14.23;;;9.20;;
7773;SDS011;3931;42.260;23.116;2023-05-10T14:03:40;25.63;;;10.20;;
7773;SDS011;3931;42.260;23.116;2023-05-10T14:06:05;14.27;;;10.23;;
7773;SDS011;3931;42.260;23.116;2023-05-10T14:08:33;18.83;;;10.00;;
7773;SDS011;3931;42.260;23.116;2023-05-10T14:10:59;12.50;;;9.23;;
7773;SDS011;3931;42.260;23.116;2023-05-10T14:13:24;29.93;;;10.60;;
7773;SDS011;3931;42.260;23.116;2023-05-10T14:15:50;17.37;;;9.30;;
7773;SDS011;3931;42.260;23.116;2023-05-10T14:18:16;16.23;;;9.90;;
7773;SDS011;3931;42.260;23.116;2023-05-10T14:20:42;14.23;;;9.40;;
7773;SDS011;3931;42.260;23.116;2023-05-10T14:23:08;34.73;;;10.00;;
7773;SDS011;3931;42.260;23.116;2023-05-10T14:25:34;12.97;;;9.57;;
7773;SDS011;3931;42.260;23.116;2023-05-10T14:28:00;24.30;;;10.17;;
7773;SDS011;3931;42.260;23.116;2023-05-10T14:30:26;12.80;;;8.60;;
7773;SDS011;3931;42.260;23.116;2023-05-10T14:32:52;15.93;;;9.80;;
7773;SDS011;3931;42.260;23.116;2023-05-10T14:35:19;18.27;;;9.77;;
7773;SDS011;3931;42.260;23.116;2023-05-10T14:37:44;19.03;;;9.20;;
7773;SDS011;3931;42.260;23.116;2023-05-10T14:40:10;12.70;;;9.07;;
7773;SDS011;3931;42.260;23.116;2023-05-10T14:42:38;25.23;;;10.87;;
7773;SDS011;3931;42.260;23.116;2023-05-10T14:45:04;16.63;;;10.33;;
7773;SDS011;3931;42.260;23.116;2023-05-10T14:47:30;13.90;;;10.20;;
7773;SDS011;3931;42.260;23.116;2023-05-10T14:49:56;11.70;;;9.60;;
7773;SDS011;3931;42.260;23.116;2023-05-10T14:52:21;13.60;;;8.50;;
7773;SDS011;3931;42.260;23.116;2023-05-10T14:54:47;34.73;;;10.10;;
7773;SDS011;3931;42.260;23.116;2023-05-10T14:57:13;13.30;;;9.47;;
7773;SDS011;3931;42.260;23.116;2023-05-10T14:59:39;21.37;;;9.20;;
7773;SDS011;3931;42.260;23.116;2023-05-10T15:02:05;16.07;;;9.20;;